sensor_id;sensor_type;location;lat;lon;timestamp;temperature;humidity
3348;DHT22;1687;49.540;8.574;2024-01-30T00:01:26;5.20;81.90
3348;DHT22;1687;49.540;8.574;2024-01-30T00:03:52;5.20;82.00
3348;DHT22;1687;49.540;8.574;2024-01-30T00:06:21;5.20;82.10
3348;DHT22;1687;49.540;8.574;2024-01-30T00:08:47;5.20;82.00
3348;DHT22;1687;49.540;8.574;2024-01-30T00:11:14;5.10;82.00
3348;DHT22;1687;49.540;8.574;2024-01-30T00:13:41;5.10;82.10
3348;DHT22;1687;49.540;8.574;2024-01-30T00:16:07;5.00;82.20
3348;DHT22;1687;49.540;8.574;2024-01-30T00:18:34;5.00;82.30
3348;DHT22;1687;49.540;8.574;2024-01-30T00:21:01;5.00;82.50
3348;DHT22;1687;49.540;8.574;2024-01-30T00:23:26;5.00;82.60
3348;DHT22;1687;49.540;8.574;2024-01-30T00:25:52;5.00;82.60
3348;DHT22;1687;49.540;8.574;2024-01-30T00:28:17;5.00;82.80
3348;DHT22;1687;49.540;8.574;2024-01-30T00:30:43;5.00;82.90
3348;DHT22;1687;49.540;8.574;2024-01-30T00:33:09;4.90;82.90
3348;DHT22;1687;49.540;8.574;2024-01-30T00:35:35;4.90;83.10
3348;DHT22;1687;49.540;8.574;2024-01-30T00:38:00;5.00;83.30
3348;DHT22;1687;49.540;8.574;2024-01-30T00:40:26;5.00;83.40
3348;DHT22;1687;49.540;8.574;2024-01-30T00:42:52;5.00;83.60
3348;DHT22;1687;49.540;8.574;2024-01-30T00:45:18;5.00;83.60
3348;DHT22;1687;49.540;8.574;2024-01-30T00:47:44;5.00;83.70
3348;DHT22;1687;49.540;8.574;2024-01-30T00:50:11;5.00;83.80
3348;DHT22;1687;49.540;8.574;2024-01-30T00:52:36;5.00;84.00
3348;DHT22;1687;49.540;8.574;2024-01-30T00:55:04;5.00;84.00
3348;DHT22;1687;49.540;8.574;2024-01-30T00:57:30;5.10;84.10
3348;DHT22;1687;49.540;8.574;2024-01-30T00:59:57;5.10;84.10
3348;DHT22;1687;49.540;8.574;2024-01-30T01:02:22;5.10;84.00
3348;DHT22;1687;49.540;8.574;2024-01-30T01:04:48;5.00;84.00
3348;DHT22;1687;49.540;8.574;2024-01-30T01:07:14;5.00;84.20
3348;DHT22;1687;49.540;8.574;2024-01-30T01:09:39;5.00;84.50
3348;DHT22;1687;49.540;8.574;2024-01-30T01:12:05;5.10;84.90
3348;DHT22;1687;49.540;8.574;2024-01-30T01:14:31;5.00;84.90
3348;DHT22;1687;49.540;8.574;2024-01-30T01:16:57;5.10;85.00
3348;DHT22;1687;49.540;8.574;2024-01-30T01:19:22;5.00;84.90
3348;DHT22;1687;49.540;8.574;2024-01-30T01:21:48;5.00;85.00
3348;DHT22;1687;49.540;8.574;2024-01-30T01:24:14;5.00;85.40
3348;DHT22;1687;49.540;8.574;2024-01-30T01:26:39;5.10;85.80
3348;DHT22;1687;49.540;8.574;2024-01-30T01:29:06;5.00;85.50
3348;DHT22;1687;49.540;8.574;2024-01-30T01:31:37;5.00;85.80
3348;DHT22;1687;49.540;8.574;2024-01-30T01:34:09;5.00;85.90
3348;DHT22;1687;49.540;8.574;2024-01-30T01:36:35;5.00;86.10
3348;DHT22;1687;49.540;8.574;2024-01-30T01:39:01;5.00;86.20
3348;DHT22;1687;49.540;8.574;2024-01-30T01:41:31;5.00;86.40
3348;DHT22;1687;49.540;8.574;2024-01-30T01:43:57;5.00;86.30
3348;DHT22;1687;49.540;8.574;2024-01-30T01:46:25;4.90;86.30
3348;DHT22;1687;49.540;8.574;2024-01-30T01:48:52;4.90;86.40
3348;DHT22;1687;49.540;8.574;2024-01-30T01:51:19;4.90;86.90
3348;DHT22;1687;49.540;8.574;2024-01-30T01:53:45;4.90;87.20
3348;DHT22;1687;49.540;8.574;2024-01-30T01:56:10;5.00;87.80
3348;DHT22;1687;49.540;8.574;2024-01-30T01:58:37;5.00;87.90
3348;DHT22;1687;49.540;8.574;2024-01-30T02:01:03;5.00;87.90
3348;DHT22;1687;49.540;8.574;2024-01-30T02:03:30;5.00;88.10
3348;DHT22;1687;49.540;8.574;2024-01-30T02:05:56;5.00;88.00
3348;DHT22;1687;49.540;8.574;2024-01-30T02:08:23;5.00;88.10
3348;DHT22;1687;49.540;8.574;2024-01-30T02:10:49;5.00;88.30
3348;DHT22;1687;49.540;8.574;2024-01-30T02:13:15;5.00;88.20
3348;DHT22;1687;49.540;8.574;2024-01-30T02:15:41;4.90;87.90
3348;DHT22;1687;49.540;8.574;2024-01-30T02:18:07;4.90;87.90
3348;DHT22;1687;49.540;8.574;2024-01-30T02:20:34;4.90;88.10
3348;DHT22;1687;49.540;8.574;2024-01-30T02:23:01;4.90;88.60
3348;DHT22;1687;49.540;8.574;2024-01-30T02:25:35;4.90;88.90
3348;DHT22;1687;49.540;8.574;2024-01-30T02:28:04;4.90;88.90
3348;DHT22;1687;49.540;8.574;2024-01-30T02:30:29;4.80;88.70
3348;DHT22;1687;49.540;8.574;2024-01-30T02:32:55;4.80;89.00
3348;DHT22;1687;49.540;8.574;2024-01-30T02:35:21;4.80;89.40
3348;DHT22;1687;49.540;8.574;2024-01-30T02:37:46;4.80;89.50
3348;DHT22;1687;49.540;8.574;2024-01-30T02:40:12;4.80;89.80
3348;DHT22;1687;49.540;8.574;2024-01-30T02:42:38;4.80;89.70
3348;DHT22;1687;49.540;8.574;2024-01-30T02:45:04;4.80;89.80
3348;DHT22;1687;49.540;8.574;2024-01-30T02:47:31;4.70;89.30
3348;DHT22;1687;49.540;8.574;2024-01-30T02:49:56;4.70;89.40
3348;DHT22;1687;49.540;8.574;2024-01-30T02:52:22;4.70;89.60
3348;DHT22;1687;49.540;8.574;2024-01-30T02:54:48;4.60;89.40
3348;DHT22;1687;49.540;8.574;2024-01-30T02:57:13;4.60;90.00
3348;DHT22;1687;49.540;8.574;2024-01-30T02:59:39;4.60;90.00
3348;DHT22;1687;49.540;8.574;2024-01-30T03:02:04;4.60;90.10
3348;DHT22;1687;49.540;8.574;2024-01-30T03:04:30;4.50;90.00
3348;DHT22;1687;49.540;8.574;2024-01-30T03:06:56;4.50;90.10
3348;DHT22;1687;49.540;8.574;2024-01-30T03:09:21;4.50;90.20
3348;DHT22;1687;49.540;8.574;2024-01-30T03:11:47;4.50;90.20
3348;DHT22;1687;49.540;8.574;2024-01-30T03:14:13;4.50;90.20
3348;DHT22;1687;49.540;8.574;2024-01-30T03:16:38;4.50;90.10
3348;DHT22;1687;49.540;8.574;2024-01-30T03:19:06;4.50;90.60
3348;DHT22;1687;49.540;8.574;2024-01-30T03:21:34;4.40;90.20
3348;DHT22;1687;49.540;8.574;2024-01-30T03:24:00;4.40;90.20
3348;DHT22;1687;49.540;8.574;2024-01-30T03:26:25;4.40;90.20
3348;DHT22;1687;49.540;8.574;2024-01-30T03:28:52;4.30;90.30
3348;DHT22;1687;49.540;8.574;2024-01-30T03:31:18;4.40;90.50
3348;DHT22;1687;49.540;8.574;2024-01-30T03:33:43;4.30;90.50
3348;DHT22;1687;49.540;8.574;2024-01-30T03:36:09;4.40;90.60
3348;DHT22;1687;49.540;8.574;2024-01-30T03:38:35;4.30;90.50
3348;DHT22;1687;49.540;8.574;2024-01-30T03:41:01;4.20;90.60
3348;DHT22;1687;49.540;8.574;2024-01-30T03:43:27;4.20;90.70
3348;DHT22;1687;49.540;8.574;2024-01-30T03:45:52;4.30;91.00
3348;DHT22;1687;49.540;8.574;2024-01-30T03:48:19;4.40;91.20
3348;DHT22;1687;49.540;8.574;2024-01-30T03:50:46;4.40;91.10
3348;DHT22;1687;49.540;8.574;2024-01-30T03:53:12;4.50;91.10
3348;DHT22;1687;49.540;8.574;2024-01-30T03:55:37;4.60;91.00
3348;DHT22;1687;49.540;8.574;2024-01-30T03:58:03;4.60;91.00
3348;DHT22;1687;49.540;8.574;2024-01-30T04:00:29;4.60;91.10
3348;DHT22;1687;49.540;8.574;2024-01-30T04:02:54;4.60;91.20
3348;DHT22;1687;49.540;8.574;2024-01-30T04:05:20;4.60;91.10
3348;DHT22;1687;49.540;8.574;2024-01-30T04:07:46;4.60;91.10
3348;DHT22;1687;49.540;8.574;2024-01-30T04:10:11;4.60;91.00
3348;DHT22;1687;49.540;8.574;2024-01-30T04:12:37;4.50;90.90
3348;DHT22;1687;49.540;8.574;2024-01-30T04:15:03;4.40;90.90
3348;DHT22;1687;49.540;8.574;2024-01-30T04:17:29;4.40;91.10
3348;DHT22;1687;49.540;8.574;2024-01-30T04:19:55;4.40;91.20
3348;DHT22;1687;49.540;8.574;2024-01-30T04:22:21;4.30;91.10
3348;DHT22;1687;49.540;8.574;2024-01-30T04:24:46;4.30;91.30
3348;DHT22;1687;49.540;8.574;2024-01-30T04:27:12;4.30;91.20
3348;DHT22;1687;49.540;8.574;2024-01-30T04:29:38;4.20;91.20
3348;DHT22;1687;49.540;8.574;2024-01-30T04:32:04;4.20;91.50
3348;DHT22;1687;49.540;8.574;2024-01-30T04:34:30;4.10;91.10
3348;DHT22;1687;49.540;8.574;2024-01-30T04:36:55;4.10;91.30
3348;DHT22;1687;49.540;8.574;2024-01-30T04:39:21;4.00;91.10
3348;DHT22;1687;49.540;8.574;2024-01-30T04:41:47;4.00;91.40
3348;DHT22;1687;49.540;8.574;2024-01-30T04:44:13;4.00;91.50
3348;DHT22;1687;49.540;8.574;2024-01-30T04:46:39;4.00;91.40
3348;DHT22;1687;49.540;8.574;2024-01-30T04:49:05;4.00;91.60
3348;DHT22;1687;49.540;8.574;2024-01-30T04:51:33;3.90;91.80
3348;DHT22;1687;49.540;8.574;2024-01-30T04:53:58;4.10;92.10
3348;DHT22;1687;49.540;8.574;2024-01-30T04:56:24;4.20;92.30
3348;DHT22;1687;49.540;8.574;2024-01-30T04:58:50;4.30;92.30
3348;DHT22;1687;49.540;8.574;2024-01-30T05:01:16;4.40;92.40
3348;DHT22;1687;49.540;8.574;2024-01-30T05:03:42;4.60;92.60
3348;DHT22;1687;49.540;8.574;2024-01-30T05:06:08;4.70;92.50
3348;DHT22;1687;49.540;8.574;2024-01-30T05:08:34;4.80;92.50
3348;DHT22;1687;49.540;8.574;2024-01-30T05:11:02;4.80;92.30
3348;DHT22;1687;49.540;8.574;2024-01-30T05:13:31;4.90;92.50
3348;DHT22;1687;49.540;8.574;2024-01-30T05:15:57;4.90;92.40
3348;DHT22;1687;49.540;8.574;2024-01-30T05:18:22;5.00;92.50
3348;DHT22;1687;49.540;8.574;2024-01-30T05:20:50;5.00;92.40
3348;DHT22;1687;49.540;8.574;2024-01-30T05:23:16;5.00;92.40
3348;DHT22;1687;49.540;8.574;2024-01-30T05:25:41;5.00;92.30
3348;DHT22;1687;49.540;8.574;2024-01-30T05:28:07;5.00;92.50
3348;DHT22;1687;49.540;8.574;2024-01-30T05:30:33;5.00;92.40
3348;DHT22;1687;49.540;8.574;2024-01-30T05:32:59;5.00;92.50
3348;DHT22;1687;49.540;8.574;2024-01-30T05:35:24;5.00;92.50
3348;DHT22;1687;49.540;8.574;2024-01-30T05:37:50;5.00;92.40
3348;DHT22;1687;49.540;8.574;2024-01-30T05:40:16;4.90;92.50
3348;DHT22;1687;49.540;8.574;2024-01-30T05:42:42;4.90;92.70
3348;DHT22;1687;49.540;8.574;2024-01-30T05:45:08;5.00;92.80
3348;DHT22;1687;49.540;8.574;2024-01-30T05:47:34;5.00;93.20
3348;DHT22;1687;49.540;8.574;2024-01-30T05:50:00;5.00;93.20
3348;DHT22;1687;49.540;8.574;2024-01-30T05:52:26;5.10;93.10
3348;DHT22;1687;49.540;8.574;2024-01-30T05:54:51;5.10;93.00
3348;DHT22;1687;49.540;8.574;2024-01-30T05:57:17;5.10;93.30
3348;DHT22;1687;49.540;8.574;2024-01-30T05:59:44;5.10;93.30
3348;DHT22;1687;49.540;8.574;2024-01-30T06:02:13;5.10;93.10
3348;DHT22;1687;49.540;8.574;2024-01-30T06:04:39;5.10;93.20
3348;DHT22;1687;49.540;8.574;2024-01-30T06:07:05;5.10;93.20
3348;DHT22;1687;49.540;8.574;2024-01-30T06:09:32;5.10;93.20
3348;DHT22;1687;49.540;8.574;2024-01-30T06:11:57;5.00;93.30
3348;DHT22;1687;49.540;8.574;2024-01-30T06:14:23;5.10;93.40
3348;DHT22;1687;49.540;8.574;2024-01-30T06:16:49;5.00;93.70
3348;DHT22;1687;49.540;8.574;2024-01-30T06:19:15;5.10;93.70
3348;DHT22;1687;49.540;8.574;2024-01-30T06:21:41;5.10;93.60
3348;DHT22;1687;49.540;8.574;2024-01-30T06:24:06;5.10;93.70
3348;DHT22;1687;49.540;8.574;2024-01-30T06:26:32;5.10;93.90
3348;DHT22;1687;49.540;8.574;2024-01-30T06:28:59;5.10;93.90
3348;DHT22;1687;49.540;8.574;2024-01-30T06:31:24;5.20;94.10
3348;DHT22;1687;49.540;8.574;2024-01-30T06:33:50;5.20;94.10
3348;DHT22;1687;49.540;8.574;2024-01-30T06:36:16;5.30;94.40
3348;DHT22;1687;49.540;8.574;2024-01-30T06:38:42;5.40;94.50
3348;DHT22;1687;49.540;8.574;2024-01-30T06:41:07;5.40;94.40
3348;DHT22;1687;49.540;8.574;2024-01-30T06:43:33;5.50;94.50
3348;DHT22;1687;49.540;8.574;2024-01-30T06:45:59;5.50;94.40
3348;DHT22;1687;49.540;8.574;2024-01-30T06:48:25;5.60;94.50
3348;DHT22;1687;49.540;8.574;2024-01-30T06:50:53;5.70;94.60
3348;DHT22;1687;49.540;8.574;2024-01-30T06:53:19;5.60;94.80
3348;DHT22;1687;49.540;8.574;2024-01-30T06:55:45;5.60;94.50
3348;DHT22;1687;49.540;8.574;2024-01-30T06:58:11;5.70;94.50
3348;DHT22;1687;49.540;8.574;2024-01-30T07:00:37;5.70;94.30
3348;DHT22;1687;49.540;8.574;2024-01-30T07:03:03;5.70;94.50
3348;DHT22;1687;49.540;8.574;2024-01-30T07:05:29;5.70;94.70
3348;DHT22;1687;49.540;8.574;2024-01-30T07:07:55;5.70;94.50
3348;DHT22;1687;49.540;8.574;2024-01-30T07:10:20;5.80;94.30
3348;DHT22;1687;49.540;8.574;2024-01-30T07:12:46;5.70;94.20
3348;DHT22;1687;49.540;8.574;2024-01-30T07:15:12;5.70;94.10
3348;DHT22;1687;49.540;8.574;2024-01-30T07:17:40;5.60;94.10
3348;DHT22;1687;49.540;8.574;2024-01-30T07:20:06;5.60;94.30
3348;DHT22;1687;49.540;8.574;2024-01-30T07:22:33;5.60;94.80
3348;DHT22;1687;49.540;8.574;2024-01-30T07:24:58;5.50;94.50
3348;DHT22;1687;49.540;8.574;2024-01-30T07:27:24;5.60;94.80
3348;DHT22;1687;49.540;8.574;2024-01-30T07:29:50;5.60;94.80
3348;DHT22;1687;49.540;8.574;2024-01-30T07:32:16;5.60;94.80
3348;DHT22;1687;49.540;8.574;2024-01-30T07:34:41;5.60;94.90
3348;DHT22;1687;49.540;8.574;2024-01-30T07:37:07;5.70;94.90
3348;DHT22;1687;49.540;8.574;2024-01-30T07:39:34;5.70;94.90
3348;DHT22;1687;49.540;8.574;2024-01-30T07:42:00;5.80;95.00
3348;DHT22;1687;49.540;8.574;2024-01-30T07:44:25;5.80;95.10
3348;DHT22;1687;49.540;8.574;2024-01-30T07:46:51;5.90;95.20
3348;DHT22;1687;49.540;8.574;2024-01-30T07:49:17;6.00;95.20
3348;DHT22;1687;49.540;8.574;2024-01-30T07:51:42;6.10;95.20
3348;DHT22;1687;49.540;8.574;2024-01-30T07:54:09;6.10;95.10
3348;DHT22;1687;49.540;8.574;2024-01-30T07:56:34;6.10;95.10
3348;DHT22;1687;49.540;8.574;2024-01-30T07:59:00;6.10;94.90
3348;DHT22;1687;49.540;8.574;2024-01-30T08:01:26;6.10;94.90
3348;DHT22;1687;49.540;8.574;2024-01-30T08:03:51;6.10;95.00
3348;DHT22;1687;49.540;8.574;2024-01-30T08:06:17;6.10;95.20
3348;DHT22;1687;49.540;8.574;2024-01-30T08:08:43;6.20;95.20
3348;DHT22;1687;49.540;8.574;2024-01-30T08:11:08;6.30;95.20
3348;DHT22;1687;49.540;8.574;2024-01-30T08:13:34;6.30;95.20
3348;DHT22;1687;49.540;8.574;2024-01-30T08:16:00;6.40;95.10
3348;DHT22;1687;49.540;8.574;2024-01-30T08:18:25;6.50;95.20
3348;DHT22;1687;49.540;8.574;2024-01-30T08:20:51;6.50;95.20
3348;DHT22;1687;49.540;8.574;2024-01-30T08:23:17;6.60;95.20
3348;DHT22;1687;49.540;8.574;2024-01-30T08:25:43;6.70;95.30
3348;DHT22;1687;49.540;8.574;2024-01-30T08:28:08;6.70;95.10
3348;DHT22;1687;49.540;8.574;2024-01-30T08:30:34;6.80;95.00
3348;DHT22;1687;49.540;8.574;2024-01-30T08:33:00;6.80;94.90
3348;DHT22;1687;49.540;8.574;2024-01-30T08:35:25;6.80;94.90
3348;DHT22;1687;49.540;8.574;2024-01-30T08:37:51;6.90;95.00
3348;DHT22;1687;49.540;8.574;2024-01-30T08:40:16;6.90;95.10
3348;DHT22;1687;49.540;8.574;2024-01-30T08:42:42;7.00;94.90
3348;DHT22;1687;49.540;8.574;2024-01-30T08:45:08;7.10;95.00
3348;DHT22;1687;49.540;8.574;2024-01-30T08:47:34;7.20;95.10
3348;DHT22;1687;49.540;8.574;2024-01-30T08:50:00;7.20;94.80
3348;DHT22;1687;49.540;8.574;2024-01-30T08:52:26;7.30;95.10
3348;DHT22;1687;49.540;8.574;2024-01-30T08:54:51;7.40;94.90
3348;DHT22;1687;49.540;8.574;2024-01-30T08:57:17;7.50;94.80
3348;DHT22;1687;49.540;8.574;2024-01-30T08:59:43;7.50;94.70
3348;DHT22;1687;49.540;8.574;2024-01-30T09:02:11;7.60;95.10
3348;DHT22;1687;49.540;8.574;2024-01-30T09:04:38;7.70;94.80
3348;DHT22;1687;49.540;8.574;2024-01-30T09:07:04;7.80;94.50
3348;DHT22;1687;49.540;8.574;2024-01-30T09:09:33;7.80;94.40
3348;DHT22;1687;49.540;8.574;2024-01-30T09:11:59;7.80;94.60
3348;DHT22;1687;49.540;8.574;2024-01-30T09:14:29;7.80;94.50
3348;DHT22;1687;49.540;8.574;2024-01-30T09:16:56;7.80;94.50
3348;DHT22;1687;49.540;8.574;2024-01-30T09:19:21;7.90;94.60
3348;DHT22;1687;49.540;8.574;2024-01-30T09:21:47;8.00;94.30
3348;DHT22;1687;49.540;8.574;2024-01-30T09:24:13;8.00;94.10
3348;DHT22;1687;49.540;8.574;2024-01-30T09:26:38;8.10;94.10
3348;DHT22;1687;49.540;8.574;2024-01-30T09:29:04;8.20;93.90
3348;DHT22;1687;49.540;8.574;2024-01-30T09:31:30;8.10;93.80
3348;DHT22;1687;49.540;8.574;2024-01-30T09:33:55;8.20;94.00
3348;DHT22;1687;49.540;8.574;2024-01-30T09:36:21;8.20;93.50
3348;DHT22;1687;49.540;8.574;2024-01-30T09:38:47;8.20;93.20
3348;DHT22;1687;49.540;8.574;2024-01-30T09:41:13;8.20;93.60
3348;DHT22;1687;49.540;8.574;2024-01-30T09:43:39;8.30;93.80
3348;DHT22;1687;49.540;8.574;2024-01-30T09:46:12;8.40;93.80
3348;DHT22;1687;49.540;8.574;2024-01-30T09:48:41;8.50;93.00
3348;DHT22;1687;49.540;8.574;2024-01-30T09:51:11;8.50;93.40
3348;DHT22;1687;49.540;8.574;2024-01-30T09:53:37;8.50;92.90
3348;DHT22;1687;49.540;8.574;2024-01-30T09:56:04;8.50;92.70
3348;DHT22;1687;49.540;8.574;2024-01-30T09:58:30;8.50;92.30
3348;DHT22;1687;49.540;8.574;2024-01-30T10:00:56;8.50;92.90
3348;DHT22;1687;49.540;8.574;2024-01-30T10:03:22;8.60;92.90
3348;DHT22;1687;49.540;8.574;2024-01-30T10:05:51;8.70;92.60
3348;DHT22;1687;49.540;8.574;2024-01-30T10:08:20;8.70;92.60
3348;DHT22;1687;49.540;8.574;2024-01-30T10:10:50;8.70;92.20
3348;DHT22;1687;49.540;8.574;2024-01-30T10:13:18;8.70;92.20
3348;DHT22;1687;49.540;8.574;2024-01-30T10:15:44;8.70;92.40
3348;DHT22;1687;49.540;8.574;2024-01-30T10:18:13;8.80;92.30
3348;DHT22;1687;49.540;8.574;2024-01-30T10:20:38;8.80;92.20
3348;DHT22;1687;49.540;8.574;2024-01-30T10:23:04;8.90;92.10
3348;DHT22;1687;49.540;8.574;2024-01-30T10:25:32;9.00;92.40
3348;DHT22;1687;49.540;8.574;2024-01-30T10:27:59;9.20;92.30
3348;DHT22;1687;49.540;8.574;2024-01-30T10:30:27;9.30;92.30
3348;DHT22;1687;49.540;8.574;2024-01-30T10:32:53;9.40;91.80
3348;DHT22;1687;49.540;8.574;2024-01-30T10:35:18;9.40;91.30
3348;DHT22;1687;49.540;8.574;2024-01-30T10:37:47;9.30;91.20
3348;DHT22;1687;49.540;8.574;2024-01-30T10:40:13;9.40;91.30
3348;DHT22;1687;49.540;8.574;2024-01-30T10:42:43;9.40;91.20
3348;DHT22;1687;49.540;8.574;2024-01-30T10:45:11;9.40;91.40
3348;DHT22;1687;49.540;8.574;2024-01-30T10:47:40;9.50;90.90
3348;DHT22;1687;49.540;8.574;2024-01-30T10:50:09;9.50;90.90
3348;DHT22;1687;49.540;8.574;2024-01-30T10:52:36;9.50;90.90
3348;DHT22;1687;49.540;8.574;2024-01-30T10:55:04;9.50;90.80
3348;DHT22;1687;49.540;8.574;2024-01-30T10:57:37;9.60;91.30
3348;DHT22;1687;49.540;8.574;2024-01-30T11:00:05;9.80;91.00
3348;DHT22;1687;49.540;8.574;2024-01-30T11:02:39;9.80;90.70
3348;DHT22;1687;49.540;8.574;2024-01-30T11:05:06;9.80;90.20
3348;DHT22;1687;49.540;8.574;2024-01-30T11:07:32;9.80;90.40
3348;DHT22;1687;49.540;8.574;2024-01-30T11:12:27;9.70;90.10
3348;DHT22;1687;49.540;8.574;2024-01-30T11:15:08;9.70;90.10
3348;DHT22;1687;49.540;8.574;2024-01-30T11:17:47;9.80;90.10
3348;DHT22;1687;49.540;8.574;2024-01-30T11:20:16;9.90;89.70
3348;DHT22;1687;49.540;8.574;2024-01-30T11:22:46;9.90;89.50
3348;DHT22;1687;49.540;8.574;2024-01-30T11:25:14;10.00;88.90
3348;DHT22;1687;49.540;8.574;2024-01-30T11:27:42;10.10;88.60
3348;DHT22;1687;49.540;8.574;2024-01-30T11:30:08;10.10;88.00
3348;DHT22;1687;49.540;8.574;2024-01-30T11:32:35;10.20;87.50
3348;DHT22;1687;49.540;8.574;2024-01-30T11:35:03;10.10;87.00
3348;DHT22;1687;49.540;8.574;2024-01-30T11:37:31;10.10;87.30
3348;DHT22;1687;49.540;8.574;2024-01-30T11:39:58;10.20;87.20
3348;DHT22;1687;49.540;8.574;2024-01-30T11:42:24;10.30;87.20
3348;DHT22;1687;49.540;8.574;2024-01-30T11:44:53;10.40;86.80
3348;DHT22;1687;49.540;8.574;2024-01-30T11:47:18;10.40;86.40
3348;DHT22;1687;49.540;8.574;2024-01-30T11:49:44;10.40;86.50
3348;DHT22;1687;49.540;8.574;2024-01-30T11:52:10;10.40;86.20
3348;DHT22;1687;49.540;8.574;2024-01-30T11:54:39;10.50;86.20
3348;DHT22;1687;49.540;8.574;2024-01-30T11:57:05;10.60;85.90
3348;DHT22;1687;49.540;8.574;2024-01-30T11:59:31;10.60;85.60
3348;DHT22;1687;49.540;8.574;2024-01-30T12:01:56;10.70;85.50
3348;DHT22;1687;49.540;8.574;2024-01-30T12:04:22;10.80;85.80
3348;DHT22;1687;49.540;8.574;2024-01-30T12:06:51;10.90;85.60
3348;DHT22;1687;49.540;8.574;2024-01-30T12:09:17;11.00;85.00
3348;DHT22;1687;49.540;8.574;2024-01-30T12:11:47;11.00;84.80
3348;DHT22;1687;49.540;8.574;2024-01-30T12:14:13;11.00;84.70
3348;DHT22;1687;49.540;8.574;2024-01-30T12:16:39;11.10;84.50
3348;DHT22;1687;49.540;8.574;2024-01-30T12:19:06;11.00;83.80
3348;DHT22;1687;49.540;8.574;2024-01-30T12:21:34;11.00;83.90
3348;DHT22;1687;49.540;8.574;2024-01-30T12:24:00;11.00;83.80
3348;DHT22;1687;49.540;8.574;2024-01-30T12:26:26;11.00;83.80
3348;DHT22;1687;49.540;8.574;2024-01-30T12:28:55;11.00;83.70
3348;DHT22;1687;49.540;8.574;2024-01-30T12:31:27;11.00;83.10
3348;DHT22;1687;49.540;8.574;2024-01-30T12:33:53;11.00;83.30
3348;DHT22;1687;49.540;8.574;2024-01-30T12:36:19;11.00;83.20
3348;DHT22;1687;49.540;8.574;2024-01-30T12:38:46;11.00;83.00
3348;DHT22;1687;49.540;8.574;2024-01-30T12:41:12;11.10;83.10
3348;DHT22;1687;49.540;8.574;2024-01-30T12:43:37;11.10;82.90
3348;DHT22;1687;49.540;8.574;2024-01-30T12:46:03;11.20;82.90
3348;DHT22;1687;49.540;8.574;2024-01-30T12:48:29;11.30;82.90
3348;DHT22;1687;49.540;8.574;2024-01-30T12:50:56;11.30;82.20
3348;DHT22;1687;49.540;8.574;2024-01-30T12:53:22;11.30;82.10
3348;DHT22;1687;49.540;8.574;2024-01-30T12:55:47;11.30;82.40
3348;DHT22;1687;49.540;8.574;2024-01-30T12:58:15;11.50;82.60
3348;DHT22;1687;49.540;8.574;2024-01-30T13:00:41;11.60;82.30
3348;DHT22;1687;49.540;8.574;2024-01-30T13:03:10;11.70;82.40
3348;DHT22;1687;49.540;8.574;2024-01-30T13:05:36;11.70;81.90
3348;DHT22;1687;49.540;8.574;2024-01-30T13:08:01;11.70;81.80
3348;DHT22;1687;49.540;8.574;2024-01-30T13:10:27;11.80;81.90
3348;DHT22;1687;49.540;8.574;2024-01-30T13:12:53;11.80;81.10
3348;DHT22;1687;49.540;8.574;2024-01-30T13:15:19;11.90;81.60
3348;DHT22;1687;49.540;8.574;2024-01-30T13:17:44;11.90;81.10
3348;DHT22;1687;49.540;8.574;2024-01-30T13:20:13;11.90;81.10
3348;DHT22;1687;49.540;8.574;2024-01-30T13:22:43;12.00;81.20
3348;DHT22;1687;49.540;8.574;2024-01-30T13:25:09;12.00;81.10
3348;DHT22;1687;49.540;8.574;2024-01-30T13:27:35;12.10;81.00
3348;DHT22;1687;49.540;8.574;2024-01-30T13:30:02;12.20;80.80
3348;DHT22;1687;49.540;8.574;2024-01-30T13:32:27;12.10;80.50
3348;DHT22;1687;49.540;8.574;2024-01-30T13:34:53;12.10;80.40
3348;DHT22;1687;49.540;8.574;2024-01-30T13:37:19;12.10;80.30
3348;DHT22;1687;49.540;8.574;2024-01-30T13:39:44;12.10;79.80
3348;DHT22;1687;49.540;8.574;2024-01-30T13:42:10;12.10;80.20
3348;DHT22;1687;49.540;8.574;2024-01-30T13:44:36;12.10;80.00
3348;DHT22;1687;49.540;8.574;2024-01-30T13:47:02;12.20;80.00
3348;DHT22;1687;49.540;8.574;2024-01-30T13:49:27;12.20;80.00
3348;DHT22;1687;49.540;8.574;2024-01-30T13:51:53;12.30;79.80
3348;DHT22;1687;49.540;8.574;2024-01-30T13:54:19;12.20;79.60
3348;DHT22;1687;49.540;8.574;2024-01-30T13:56:44;12.30;79.60
3348;DHT22;1687;49.540;8.574;2024-01-30T13:59:10;12.30;79.60
3348;DHT22;1687;49.540;8.574;2024-01-30T14:01:36;12.40;79.80
3348;DHT22;1687;49.540;8.574;2024-01-30T14:04:01;12.40;79.50
3348;DHT22;1687;49.540;8.574;2024-01-30T14:06:27;12.40;79.50
3348;DHT22;1687;49.540;8.574;2024-01-30T14:08:53;12.40;79.20
3348;DHT22;1687;49.540;8.574;2024-01-30T14:11:19;12.30;79.00
3348;DHT22;1687;49.540;8.574;2024-01-30T14:13:44;12.30;78.80
3348;DHT22;1687;49.540;8.574;2024-01-30T14:16:10;12.20;78.80
3348;DHT22;1687;49.540;8.574;2024-01-30T14:18:37;12.20;78.90
3348;DHT22;1687;49.540;8.574;2024-01-30T14:21:03;12.20;78.90
3348;DHT22;1687;49.540;8.574;2024-01-30T14:23:28;12.20;78.60
3348;DHT22;1687;49.540;8.574;2024-01-30T14:25:54;12.20;78.60
3348;DHT22;1687;49.540;8.574;2024-01-30T14:28:20;12.10;78.40
3348;DHT22;1687;49.540;8.574;2024-01-30T14:30:45;12.10;78.40
3348;DHT22;1687;49.540;8.574;2024-01-30T14:33:11;12.10;78.60
3348;DHT22;1687;49.540;8.574;2024-01-30T14:35:37;12.10;78.60
3348;DHT22;1687;49.540;8.574;2024-01-30T14:38:03;12.20;78.50
3348;DHT22;1687;49.540;8.574;2024-01-30T14:40:30;12.20;78.60
3348;DHT22;1687;49.540;8.574;2024-01-30T14:42:56;12.10;78.40
3348;DHT22;1687;49.540;8.574;2024-01-30T14:45:22;12.20;78.50
3348;DHT22;1687;49.540;8.574;2024-01-30T14:47:47;12.20;78.20
3348;DHT22;1687;49.540;8.574;2024-01-30T14:50:13;12.10;78.20
3348;DHT22;1687;49.540;8.574;2024-01-30T14:52:41;12.20;78.40
3348;DHT22;1687;49.540;8.574;2024-01-30T14:55:07;12.10;78.20
3348;DHT22;1687;49.540;8.574;2024-01-30T14:57:34;12.10;78.20
3348;DHT22;1687;49.540;8.574;2024-01-30T15:00:00;12.10;78.10
3348;DHT22;1687;49.540;8.574;2024-01-30T15:02:26;12.10;78.00
3348;DHT22;1687;49.540;8.574;2024-01-30T15:04:51;12.10;78.20
3348;DHT22;1687;49.540;8.574;2024-01-30T15:07:17;12.10;78.00
3348;DHT22;1687;49.540;8.574;2024-01-30T15:09:44;12.00;77.80
3348;DHT22;1687;49.540;8.574;2024-01-30T15:12:09;12.00;77.90
3348;DHT22;1687;49.540;8.574;2024-01-30T15:14:35;12.00;77.90
3348;DHT22;1687;49.540;8.574;2024-01-30T15:17:01;11.90;77.80
3348;DHT22;1687;49.540;8.574;2024-01-30T15:19:27;11.90;77.90
3348;DHT22;1687;49.540;8.574;2024-01-30T15:21:52;11.90;78.10
3348;DHT22;1687;49.540;8.574;2024-01-30T15:24:18;11.90;77.90
3348;DHT22;1687;49.540;8.574;2024-01-30T15:26:45;11.90;77.70
3348;DHT22;1687;49.540;8.574;2024-01-30T15:29:11;11.90;77.90
3348;DHT22;1687;49.540;8.574;2024-01-30T15:31:37;11.90;77.90
3348;DHT22;1687;49.540;8.574;2024-01-30T15:34:03;11.80;77.80
3348;DHT22;1687;49.540;8.574;2024-01-30T15:36:29;11.80;77.90
3348;DHT22;1687;49.540;8.574;2024-01-30T15:38:55;11.80;77.80
3348;DHT22;1687;49.540;8.574;2024-01-30T15:41:21;11.80;77.90
3348;DHT22;1687;49.540;8.574;2024-01-30T15:43:47;11.80;78.00
3348;DHT22;1687;49.540;8.574;2024-01-30T15:46:13;11.80;77.90
3348;DHT22;1687;49.540;8.574;2024-01-30T15:48:39;11.70;77.80
3348;DHT22;1687;49.540;8.574;2024-01-30T15:51:06;11.70;77.70
3348;DHT22;1687;49.540;8.574;2024-01-30T15:53:31;11.70;77.90
3348;DHT22;1687;49.540;8.574;2024-01-30T15:55:57;11.70;77.80
3348;DHT22;1687;49.540;8.574;2024-01-30T15:58:23;11.60;77.80
3348;DHT22;1687;49.540;8.574;2024-01-30T16:00:48;11.60;77.80
3348;DHT22;1687;49.540;8.574;2024-01-30T16:03:14;11.60;77.90
3348;DHT22;1687;49.540;8.574;2024-01-30T16:05:40;11.60;77.90
3348;DHT22;1687;49.540;8.574;2024-01-30T16:08:05;11.50;77.80